createdAt,value
2018-11-05T00:00:55.078Z,74.71
2018-11-05T00:03:26.464Z,75.69
2018-11-05T00:05:58.081Z,75.30
2018-11-05T00:08:31.012Z,74.95
2018-11-05T00:11:02.265Z,75.24
2018-11-05T00:13:33.715Z,75.40
2018-11-05T00:16:05.110Z,75.00
2018-11-05T00:18:36.504Z,74.93
2018-11-05T00:21:08.070Z,75.28
2018-11-05T00:23:39.939Z,75.12
2018-11-05T00:26:12.070Z,75.43
2018-11-05T00:28:43.173Z,75.29
2018-11-05T00:31:15.570Z,75.09
2018-11-05T00:33:46.780Z,74.78
2018-11-05T00:36:18.342Z,75.25
2018-11-05T00:38:50.604Z,75.53
2018-11-05T00:41:22.174Z,75.70
2018-11-05T00:43:53.810Z,75.82
2018-11-05T00:46:25.879Z,75.58
2018-11-05T00:48:58.415Z,75.94
2018-11-05T00:51:30.684Z,75.41
2018-11-05T00:54:02.615Z,75.72
2018-11-05T00:56:35.093Z,75.64
2018-11-05T00:59:07.630Z,75.62
2018-11-05T01:01:39.259Z,76.17
2018-11-05T01:04:11.377Z,76.06
2018-11-05T01:06:43.213Z,75.75
2018-11-05T01:09:15.199Z,75.92
2018-11-05T01:11:46.776Z,76.68
2018-11-05T01:14:18.261Z,76.56
2018-11-05T01:16:50.217Z,76.65
2018-11-05T01:19:21.797Z,76.46
2018-11-05T01:21:53.368Z,76.37
2018-11-05T01:24:25.613Z,76.43
2018-11-05T01:26:57.255Z,76.49
2018-11-05T01:29:28.877Z,76.69
2018-11-05T01:32:00.872Z,76.44
2018-11-05T01:34:31.783Z,76.67
2018-11-05T01:37:03.698Z,76.93
2018-11-05T01:39:35.722Z,76.31
2018-11-05T01:42:07.418Z,76.51
2018-11-05T01:44:38.953Z,76.53
2018-11-05T01:47:11.114Z,76.56
2018-11-05T01:49:42.488Z,76.85
2018-11-05T01:52:14.315Z,76.46
2018-11-05T01:54:46.155Z,76.42
2018-11-05T01:57:18.129Z,76.86
2018-11-05T01:59:50.199Z,76.36
2018-11-05T02:02:22.047Z,76.46
2018-11-05T02:04:54.152Z,76.51
2018-11-05T02:07:26.345Z,76.50
2018-11-05T02:09:57.708Z,76.25
2018-11-05T02:12:29.474Z,76.60
2018-11-05T02:15:02.328Z,77.18
2018-11-05T02:17:34.039Z,76.98
2018-11-05T02:20:06.674Z,76.95
2018-11-05T02:22:38.605Z,77.54
2018-11-05T02:25:11.804Z,77.26
2018-11-05T02:27:43.733Z,77.34
2018-11-05T02:30:18.761Z,77.15
2018-11-05T02:32:50.247Z,77.11
2018-11-05T02:35:21.930Z,77.28
2018-11-05T02:37:53.622Z,77.20
2018-11-05T02:40:25.692Z,76.88
2018-11-05T02:42:57.283Z,77.22
2018-11-05T02:45:29.702Z,77.73
2018-11-05T02:48:01.193Z,77.10
2018-11-05T02:50:33.504Z,77.00
2018-11-05T02:53:04.947Z,76.84
2018-11-05T02:55:36.516Z,76.71
2018-11-05T02:58:08.132Z,77.33
2018-11-05T03:00:39.756Z,76.95
2018-11-05T03:03:11.720Z,77.33
2018-11-05T03:05:43.309Z,76.92
2018-11-05T03:08:14.957Z,76.48
2018-11-05T03:10:46.234Z,76.80
2018-11-05T03:13:18.093Z,76.83
2018-11-05T03:15:49.653Z,77.43
2018-11-05T03:18:20.589Z,77.35
2018-11-05T03:20:51.583Z,77.47
2018-11-05T03:23:23.321Z,77.56
2018-11-05T03:25:55.645Z,78.12
2018-11-05T03:28:27.297Z,77.00
2018-11-05T03:30:59.040Z,77.61
2018-11-05T03:33:30.633Z,77.11
2018-11-05T03:36:02.133Z,77.55
2018-11-05T03:38:33.541Z,77.90
2018-11-05T03:41:04.770Z,77.51
2018-11-05T03:43:36.543Z,77.40
2018-11-05T03:46:08.383Z,77.48
2018-11-05T03:48:40.224Z,78.15
2018-11-05T03:51:11.741Z,77.73
2018-11-05T03:53:43.942Z,78.01
2018-11-05T03:56:15.662Z,78.08
2018-11-05T03:58:47.108Z,78.60
2018-11-05T04:01:18.984Z,78.15
2018-11-05T04:03:50.606Z,78.03
2018-11-05T04:06:22.140Z,78.37
2018-11-05T04:08:53.839Z,78.60
2018-11-05T04:11:25.052Z,78.71
2018-11-05T04:13:57.306Z,78.17
2018-11-05T04:16:29.313Z,78.15
2018-11-05T04:19:00.616Z,78.49
2018-11-05T04:21:46.190Z,78.61
2018-11-05T04:24:17.829Z,78.80
2018-11-05T04:26:48.991Z,78.75
2018-11-05T04:29:20.828Z,79.80
2018-11-05T04:31:52.284Z,79.87
2018-11-05T04:34:23.600Z,79.49
2018-11-05T04:36:56.234Z,79.11
2018-11-05T04:39:27.562Z,79.37
2018-11-05T04:41:59.451Z,79.25
2018-11-05T04:44:30.888Z,79.37
2018-11-05T04:47:03.186Z,79.47
2018-11-05T04:49:35.121Z,79.60
2018-11-05T04:52:07.515Z,79.92
2018-11-05T04:54:39.425Z,79.84
2018-11-05T04:57:11.123Z,80.30
2018-11-05T04:59:43.080Z,80.45
2018-11-05T05:02:15.103Z,80.55
2018-11-05T05:04:46.903Z,80.71
2018-11-05T05:07:18.413Z,80.97
2018-11-05T05:09:49.796Z,80.53
2018-11-05T05:12:22.787Z,80.89
2018-11-05T05:14:53.921Z,80.38
2018-11-05T05:17:25.226Z,80.88
2018-11-05T05:19:57.612Z,80.98
2018-11-05T05:22:29.468Z,81.08
2018-11-05T05:25:01.433Z,80.72
2018-11-05T05:27:32.720Z,81.34
2018-11-05T05:30:05.898Z,81.56
2018-11-05T05:32:38.500Z,81.17
2018-11-05T05:35:10.247Z,81.37
2018-11-05T05:37:43.503Z,81.95
2018-11-05T05:40:16.111Z,81.60
2018-11-05T05:42:47.634Z,81.79
2018-11-05T05:45:19.425Z,81.85
2018-11-05T05:47:51.734Z,81.98
2018-11-05T05:50:23.291Z,82.20
2018-11-05T05:52:54.952Z,82.55
2018-11-05T05:55:27.613Z,82.87
2018-11-05T05:57:59.419Z,82.84
2018-11-05T06:00:31.668Z,83.02
2018-11-05T06:03:03.932Z,83.29
2018-11-05T06:05:35.027Z,83.41
2018-11-05T06:08:06.339Z,83.45
2018-11-05T06:10:38.887Z,84.11
2018-11-05T06:13:11.052Z,83.73
2018-11-05T06:15:43.042Z,83.85
2018-11-05T06:18:14.565Z,84.05
2018-11-05T06:20:45.591Z,83.77
2018-11-05T06:23:16.636Z,83.92
2018-11-05T06:25:47.835Z,83.51
2018-11-05T06:28:19.421Z,84.01
2018-11-05T06:30:51.872Z,84.17
2018-11-05T06:33:23.280Z,84.10
2018-11-05T06:35:55.191Z,83.70
2018-11-05T06:38:26.377Z,83.80
2018-11-05T06:40:58.185Z,84.18
2018-11-05T06:43:29.889Z,83.86
2018-11-05T06:46:00.986Z,84.04
2018-11-05T06:48:32.463Z,83.86
2018-11-05T06:51:03.529Z,83.91
2018-11-05T06:53:35.506Z,83.92
2018-11-05T06:56:07.657Z,83.93
2018-11-05T06:58:41.455Z,84.19
2018-11-05T07:01:12.623Z,83.64
2018-11-05T07:03:44.225Z,84.18
2018-11-05T07:06:15.614Z,84.53
2018-11-05T07:08:46.990Z,84.26
2018-11-05T07:11:18.862Z,84.11
2018-11-05T07:13:49.842Z,84.48
2018-11-05T07:16:21.234Z,83.77
2018-11-05T07:18:52.923Z,84.34
2018-11-05T07:21:24.368Z,84.41
2018-11-05T07:23:55.608Z,83.74
2018-11-05T07:26:26.658Z,83.68
2018-11-05T07:28:57.980Z,83.53
2018-11-05T07:31:29.486Z,83.27
2018-11-05T07:34:00.605Z,83.63
2018-11-05T07:36:32.685Z,83.34
2018-11-05T07:39:05.061Z,83.38
2018-11-05T07:41:36.533Z,82.75
2018-11-05T07:44:08.439Z,82.62
2018-11-05T07:46:40.048Z,83.13
2018-11-05T07:49:11.554Z,82.68
2018-11-05T07:51:43.523Z,82.45
2018-11-05T07:54:15.105Z,81.59
2018-11-05T07:56:46.704Z,80.86
2018-11-05T07:59:18.406Z,80.68
2018-11-05T08:01:49.777Z,80.48
2018-11-05T08:04:20.851Z,80.13
2018-11-05T08:08:16.030Z,79.78
2018-11-05T08:10:47.798Z,80.42
2018-11-05T08:13:19.613Z,80.45
2018-11-05T08:15:50.684Z,80.64
2018-11-05T08:18:22.534Z,80.28
2018-11-05T08:20:54.052Z,80.24
2018-11-05T08:23:26.577Z,79.79
2018-11-05T08:25:58.205Z,79.12
2018-11-05T08:28:29.844Z,79.01
2018-11-05T08:31:01.678Z,79.15
2018-11-05T08:33:33.732Z,78.52
2018-11-05T08:36:05.238Z,78.72
2018-11-05T08:38:36.530Z,78.21
2018-11-05T08:41:08.526Z,77.48
2018-11-05T08:43:39.557Z,77.25
2018-11-05T08:46:11.712Z,77.53
2018-11-05T08:48:43.419Z,76.88
2018-11-05T08:51:15.543Z,76.81
2018-11-05T08:53:47.642Z,76.34
2018-11-05T08:56:18.768Z,76.75
2018-11-05T08:58:49.827Z,76.39
2018-11-05T09:01:21.224Z,75.73
2018-11-05T09:03:53.872Z,75.33
2018-11-05T09:06:25.997Z,75.76
2018-11-05T09:08:57.790Z,75.59
2018-11-05T09:11:29.674Z,75.17
2018-11-05T09:14:01.230Z,75.26
2018-11-05T09:16:33.049Z,74.54
2018-11-05T09:19:04.479Z,75.23
2018-11-05T09:21:36.053Z,74.69
2018-11-05T09:24:08.099Z,74.60
2018-11-05T09:26:39.838Z,74.74
2018-11-05T09:29:11.727Z,74.67
2018-11-05T09:31:43.456Z,73.98
2018-11-05T09:34:15.104Z,73.21
2018-11-05T09:36:47.467Z,73.34
2018-11-05T09:39:19.025Z,73.27
2018-11-05T09:41:50.132Z,72.70
2018-11-05T09:44:22.183Z,72.08
2018-11-05T09:46:53.854Z,71.51
2018-11-05T09:49:25.679Z,72.48
2018-11-05T09:51:57.706Z,71.71
2018-11-05T09:54:30.504Z,71.34
2018-11-05T09:57:01.940Z,71.03
2018-11-05T09:59:33.249Z,70.77
2018-11-05T10:02:05.819Z,71.13
2018-11-05T10:04:37.217Z,70.21
2018-11-05T10:07:09.622Z,70.23
2018-11-05T10:09:41.218Z,70.10
2018-11-05T10:12:12.755Z,69.46
2018-11-05T10:14:44.363Z,69.45
2018-11-05T10:17:16.355Z,70.36
2018-11-05T10:19:47.705Z,69.91
2018-11-05T10:22:19.307Z,70.70
2018-11-05T10:24:51.400Z,70.58
2018-11-05T10:27:24.618Z,70.75
2018-11-05T10:29:56.376Z,70.98
2018-11-05T10:32:27.812Z,71.29
2018-11-05T10:34:59.517Z,70.79
2018-11-05T10:37:32.577Z,70.52
2018-11-05T10:40:03.670Z,70.80
2018-11-05T10:42:35.325Z,69.92
2018-11-05T10:45:07.013Z,69.52
2018-11-05T10:47:38.521Z,69.54
2018-11-05T10:50:10.353Z,69.36
2018-11-05T10:52:42.939Z,68.52
2018-11-05T10:55:14.295Z,68.97
2018-11-05T10:57:45.670Z,68.17
2018-11-05T11:00:22.628Z,68.94
2018-11-05T11:02:58.197Z,69.21
2018-11-05T11:05:30.098Z,69.28
2018-11-05T11:08:02.735Z,69.22
2018-11-05T11:10:35.141Z,68.50
2018-11-05T11:13:07.199Z,67.90
2018-11-05T11:15:38.726Z,68.15
2018-11-05T11:18:11.499Z,67.55
2018-11-05T11:20:42.466Z,67.24
2018-11-05T11:23:13.807Z,67.28
2018-11-05T11:25:45.023Z,66.77
2018-11-05T11:28:16.444Z,66.53
2018-11-05T11:30:48.419Z,66.56
2018-11-05T11:33:19.430Z,66.51
2018-11-05T11:35:50.784Z,66.20
2018-11-05T11:38:22.802Z,66.45
2018-11-05T11:40:55.243Z,66.46
2018-11-05T11:43:26.773Z,66.98
2018-11-05T11:45:57.814Z,66.82
2018-11-05T11:48:29.132Z,66.97
2018-11-05T11:51:01.273Z,66.92
2018-11-05T11:53:32.862Z,67.47
2018-11-05T11:56:04.188Z,66.92
2018-11-05T11:58:35.815Z,66.55
2018-11-05T12:01:07.139Z,66.63
2018-11-05T12:03:38.450Z,66.00
2018-11-05T12:06:09.777Z,66.16
2018-11-05T12:08:41.351Z,65.83
2018-11-05T12:11:13.224Z,66.21
2018-11-05T12:13:44.606Z,65.45
2018-11-05T12:16:15.957Z,65.42
2018-11-05T12:18:48.397Z,65.92
2018-11-05T12:21:20.140Z,65.68
2018-11-05T12:23:51.892Z,66.10
2018-11-05T12:26:23.056Z,65.74
2018-11-05T12:28:55.116Z,65.96
2018-11-05T12:31:28.074Z,66.13
2018-11-05T12:33:59.719Z,66.36
2018-11-05T12:36:31.802Z,66.67
2018-11-05T12:39:04.046Z,66.55
2018-11-05T12:41:35.394Z,66.91
2018-11-05T12:44:07.431Z,66.36
2018-11-05T12:46:39.577Z,66.32
2018-11-05T12:49:11.240Z,66.81
2018-11-05T12:51:42.161Z,66.75
2018-11-05T12:54:13.151Z,67.33
2018-11-05T12:56:44.610Z,67.04
2018-11-05T12:59:15.796Z,66.83
2018-11-05T13:01:47.176Z,67.13
2018-11-05T13:04:18.743Z,67.05
2018-11-05T13:06:50.797Z,67.08
2018-11-05T13:09:22.147Z,66.87
2018-11-05T13:11:53.367Z,67.24
2018-11-05T13:14:24.444Z,67.49
2018-11-05T13:16:56.192Z,67.00
2018-11-05T13:19:27.546Z,67.51
2018-11-05T13:21:58.626Z,67.71
2018-11-05T13:24:29.731Z,67.38
2018-11-05T13:27:00.842Z,67.75
2018-11-05T13:29:32.422Z,67.64
2018-11-05T13:32:03.724Z,67.60
2018-11-05T13:34:35.550Z,67.88
2018-11-05T13:37:07.972Z,67.70
2018-11-05T13:39:39.030Z,68.59
2018-11-05T13:42:10.400Z,68.15
2018-11-05T13:44:41.433Z,67.94
2018-11-05T13:47:13.709Z,67.93
2018-11-05T13:49:45.150Z,68.41
2018-11-05T13:52:16.258Z,68.33
2018-11-05T13:54:47.697Z,68.30
2018-11-05T13:57:19.154Z,67.85
2018-11-05T13:59:50.223Z,68.09
2018-11-05T14:02:21.594Z,68.67
2018-11-05T14:04:52.739Z,68.39
2018-11-05T14:07:23.714Z,67.97
2018-11-05T14:09:55.226Z,67.88
2018-11-05T14:12:26.963Z,67.69
2018-11-05T14:14:58.316Z,67.89
2018-11-05T14:17:31.650Z,68.28
2018-11-05T14:20:02.716Z,68.25
2018-11-05T14:22:34.066Z,67.95
2018-11-05T14:25:06.164Z,68.35
2018-11-05T14:27:37.681Z,68.11
2018-11-05T14:30:10.654Z,68.01
2018-11-05T14:32:43.133Z,67.39
2018-11-05T14:35:15.146Z,68.36
2018-11-05T14:37:46.740Z,68.03
2018-11-05T14:40:19.218Z,68.12
2018-11-05T14:42:50.507Z,67.66
2018-11-05T14:45:22.467Z,67.87
2018-11-05T14:47:54.110Z,67.69
2018-11-05T14:50:25.187Z,68.13
2018-11-05T14:52:56.566Z,68.30
2018-11-05T14:55:28.355Z,68.45
2018-11-05T14:58:00.082Z,68.76
2018-11-05T15:00:31.954Z,68.47
2018-11-05T15:03:03.258Z,68.30
2018-11-05T15:05:34.600Z,68.77
2018-11-05T15:08:10.001Z,68.82
2018-11-05T15:10:45.035Z,69.69
2018-11-05T15:13:18.461Z,69.84
2018-11-05T15:15:50.619Z,70.49
2018-11-05T15:18:22.034Z,70.50
2018-11-05T15:20:54.102Z,71.00
2018-11-05T15:23:26.323Z,70.81
2018-11-05T15:25:57.655Z,71.46
2018-11-05T15:28:29.127Z,72.06
2018-11-05T15:31:00.559Z,72.11
2018-11-05T15:33:32.343Z,72.70
2018-11-05T15:36:03.776Z,72.82
2018-11-05T15:38:34.984Z,72.84
2018-11-05T15:41:06.637Z,73.03
2018-11-05T15:43:38.454Z,74.11
2018-11-05T15:46:09.998Z,74.96
2018-11-05T15:48:41.127Z,74.49
2018-11-05T15:51:12.790Z,74.89
2018-11-05T15:53:44.080Z,75.01
2018-11-05T15:56:15.225Z,75.43
2018-11-05T15:58:46.779Z,75.34
2018-11-05T16:01:18.011Z,75.95
2018-11-05T16:03:49.672Z,75.68
2018-11-05T16:06:22.376Z,76.86
2018-11-05T16:08:53.571Z,77.12
2018-11-05T16:11:24.879Z,77.65
2018-11-05T16:13:56.636Z,77.58
2018-11-05T16:16:27.994Z,77.81
2018-11-05T16:18:59.318Z,77.98
2018-11-05T16:21:31.433Z,78.50
2018-11-05T16:24:04.676Z,78.89
2018-11-05T16:26:36.518Z,78.36
2018-11-05T16:29:07.701Z,78.72
2018-11-05T16:31:40.290Z,78.74
2018-11-05T16:34:12.509Z,78.83
2018-11-05T16:36:43.576Z,78.39
2018-11-05T16:39:15.507Z,78.66
2018-11-05T16:41:48.165Z,79.15
2018-11-05T16:44:19.910Z,79.12
2018-11-05T16:46:51.147Z,79.18
2018-11-05T16:49:23.028Z,78.87
2018-11-05T16:51:57.085Z,79.51
2018-11-05T16:54:28.950Z,79.35
2018-11-05T16:57:01.713Z,79.45
2018-11-05T16:59:37.080Z,79.30
2018-11-05T17:02:16.947Z,79.87
2018-11-05T17:04:48.432Z,80.54
2018-11-05T17:07:20.238Z,80.48
2018-11-05T17:09:51.721Z,80.07
2018-11-05T17:12:24.228Z,80.00
2018-11-05T17:14:58.185Z,80.30
2018-11-05T17:17:29.372Z,80.81
2018-11-05T17:20:01.067Z,80.44
2018-11-05T17:22:32.165Z,79.80
2018-11-05T17:25:04.159Z,80.31
2018-11-05T17:27:35.466Z,80.62
2018-11-05T17:30:10.434Z,80.67
2018-11-05T17:32:42.408Z,80.27
2018-11-05T17:35:15.221Z,80.81
2018-11-05T17:37:48.065Z,80.55
2018-11-05T17:40:24.108Z,81.23
2018-11-05T17:42:55.639Z,81.28
2018-11-05T17:45:28.546Z,81.24
2018-11-05T17:47:59.893Z,80.93
2018-11-05T17:50:33.170Z,81.27
2018-11-05T17:53:05.603Z,81.58
2018-11-05T17:55:41.328Z,80.73
2018-11-05T17:58:14.876Z,81.22
2018-11-05T18:00:49.838Z,81.70
2018-11-05T18:03:30.473Z,81.84
2018-11-05T18:06:10.366Z,81.77
2018-11-05T18:08:46.950Z,81.91
2018-11-05T18:11:23.801Z,81.73
2018-11-05T18:14:08.153Z,81.80
2018-11-05T18:16:50.795Z,81.85
2018-11-05T18:19:22.525Z,82.03
2018-11-05T18:21:56.475Z,82.10
2018-11-05T18:24:27.669Z,81.95
2018-11-05T18:26:59.604Z,81.78
2018-11-05T18:29:30.759Z,81.87
2018-11-05T18:32:02.696Z,81.71
2018-11-05T18:34:36.336Z,81.61
2018-11-05T18:37:08.969Z,81.41
2018-11-05T18:39:41.740Z,82.17
2018-11-05T18:42:14.365Z,81.98
2018-11-05T18:44:46.420Z,82.33
2018-11-05T18:47:18.124Z,82.14
2018-11-05T18:49:49.203Z,81.95
2018-11-05T18:52:20.868Z,83.01
2018-11-05T18:54:52.234Z,82.55
2018-11-05T18:57:23.684Z,82.42
2018-11-05T18:59:55.244Z,82.86
2018-11-05T19:02:31.148Z,83.02
2018-11-05T19:05:03.507Z,83.29
2018-11-05T19:07:35.223Z,82.99
2018-11-05T19:10:08.189Z,83.00
2018-11-05T19:12:40.631Z,83.03
2018-11-05T19:15:13.775Z,83.64
2018-11-05T19:17:46.404Z,82.86
2018-11-05T19:20:17.883Z,83.27
2018-11-05T19:22:49.653Z,83.39
2018-11-05T19:25:21.177Z,83.43
2018-11-05T19:27:53.597Z,83.74
2018-11-05T19:30:26.762Z,83.04
2018-11-05T19:32:58.899Z,83.06
2018-11-05T19:35:32.118Z,83.58
2018-11-05T19:38:04.031Z,83.55
2018-11-05T19:40:35.044Z,84.17
2018-11-05T19:43:31.648Z,83.83
2018-11-05T19:50:48.844Z,83.95
2018-11-05T19:53:20.136Z,84.03
2018-11-05T19:55:51.659Z,84.10
2018-11-05T19:58:23.098Z,84.13
2018-11-05T20:00:55.976Z,84.18
2018-11-05T20:03:27.519Z,84.47
2018-11-05T20:06:00.238Z,84.83
2018-11-05T20:08:32.033Z,85.06
2018-11-05T20:11:03.720Z,84.73
2018-11-05T20:13:36.133Z,84.34
2018-11-05T20:16:08.154Z,84.92
2018-11-05T20:18:41.018Z,85.08
2018-11-05T20:21:12.263Z,85.01
2018-11-05T20:23:43.371Z,85.20
2018-11-05T20:26:15.367Z,85.04
2018-11-05T20:28:46.591Z,84.98
2018-11-05T20:31:18.636Z,84.59
2018-11-05T20:33:50.248Z,84.56
2018-11-05T20:36:23.051Z,84.55
2018-11-05T20:38:54.179Z,84.28
2018-11-05T20:41:26.486Z,84.79
2018-11-05T20:43:59.727Z,84.60
2018-11-05T20:46:30.918Z,84.39
2018-11-05T20:49:02.444Z,84.56
2018-11-05T20:51:35.283Z,84.49
2018-11-05T20:54:07.687Z,84.42
2018-11-05T20:56:39.631Z,84.40
2018-11-05T20:59:11.508Z,84.58
2018-11-05T21:01:43.725Z,84.38
2018-11-05T21:04:15.425Z,84.34
2018-11-05T21:06:47.236Z,84.28
2018-11-05T21:09:18.905Z,84.23
2018-11-05T21:11:50.686Z,83.92
2018-11-05T21:14:23.983Z,84.00
2018-11-05T21:16:56.043Z,83.97
2018-11-05T21:19:27.607Z,83.99
2018-11-05T21:21:59.312Z,84.11
2018-11-05T21:24:32.655Z,83.99
2018-11-05T21:27:04.490Z,84.33
2018-11-05T21:29:36.118Z,84.54
2018-11-05T21:32:09.134Z,84.56
2018-11-05T21:34:40.572Z,84.61
2018-11-05T21:37:12.477Z,84.54
2018-11-05T21:39:45.247Z,84.53
2018-11-05T21:42:17.280Z,84.46
2018-11-05T21:44:49.590Z,84.18
2018-11-05T21:47:21.629Z,84.16
2018-11-05T21:49:53.363Z,84.18
2018-11-05T21:52:25.894Z,84.00
2018-11-05T21:54:58.673Z,83.78
2018-11-05T21:57:30.265Z,83.61
2018-11-05T22:00:02.041Z,83.57
2018-11-05T22:02:39.132Z,83.25
2018-11-05T22:05:11.011Z,83.24
2018-11-05T22:07:42.591Z,83.21
2018-11-05T22:10:14.943Z,82.71
2018-11-05T22:12:47.463Z,82.63
2018-11-05T22:15:19.037Z,82.41
2018-11-05T22:17:50.218Z,82.16
2018-11-05T22:20:21.655Z,82.23
2018-11-05T22:22:53.745Z,82.13
2018-11-05T22:25:25.153Z,82.13
2018-11-05T22:27:57.842Z,81.71
2018-11-05T22:30:29.408Z,81.70
2018-11-05T22:33:00.995Z,81.59
2018-11-05T22:35:33.558Z,81.44
2018-11-05T22:38:05.603Z,81.23
2018-11-05T22:40:36.920Z,81.14
2018-11-05T22:43:08.488Z,81.29
2018-11-05T22:45:40.113Z,81.51
2018-11-05T22:48:12.969Z,81.50
2018-11-05T22:50:44.621Z,81.82
2018-11-05T22:53:16.631Z,81.88
2018-11-05T22:55:48.405Z,81.66
2018-11-05T22:58:20.154Z,81.83
2018-11-05T23:00:58.532Z,82.06
2018-11-05T23:03:32.139Z,82.16
2018-11-05T23:06:03.723Z,82.49
2018-11-05T23:08:37.085Z,82.51
2018-11-05T23:11:12.057Z,82.65
2018-11-05T23:13:44.126Z,82.55
2018-11-05T23:16:16.126Z,82.65
2018-11-05T23:18:47.786Z,82.98
2018-11-05T23:21:19.399Z,83.14
2018-11-05T23:23:50.862Z,83.12
2018-11-05T23:26:23.787Z,83.27
2018-11-05T23:28:57.178Z,83.56
2018-11-05T23:31:28.843Z,83.59
2018-11-05T23:34:00.813Z,83.47
2018-11-05T23:36:32.779Z,83.64
2018-11-05T23:39:05.974Z,83.32
2018-11-05T23:41:38.777Z,83.95
2018-11-05T23:44:10.311Z,84.15
2018-11-05T23:46:41.633Z,83.83
2018-11-05T23:49:13.335Z,84.26
2018-11-05T23:51:44.691Z,84.44
2018-11-05T23:54:16.127Z,84.17
2018-11-05T23:56:48.109Z,84.31
2018-11-05T23:59:20.425Z,84.16
